Time;durP1;ratioP1;P1;durP2;ratioP2;P2;SDS_P1;SDS_P2;PMS_P1;PMS_P2;Temp;Humidity;BMP_temperature;BMP_pressure;BME280_temperature;BME280_humidity;BME280_pressure;Samples;Min_cycle;Max_cycle;Signal;HPM_P1;HPM_P2
2022/08/08 00:01:24;;;;;;;;;;;10.20;99.90;;;;;;5097981;27;20411;-56
2022/08/08 00:04:10;;;;;;;;;;;10.10;99.90;;;;;;5120046;27;19912;-56
2022/08/08 00:06:54;;;;;;;;;;;10.00;99.90;;;;;;5126884;27;19918;-56
2022/08/08 00:09:39;;;;;;;;;;;10.00;99.90;;;;;;5124087;27;19918;-56
2022/08/08 00:12:21;;;;;;;;;;;9.90;99.90;;;;;;5114276;27;19912;-56
2022/08/08 00:15:07;;;;;;;;;;;9.90;99.90;;;;;;5111467;27;19912;-55
2022/08/08 00:17:52;;;;;;;;;;;9.90;99.90;;;;;;5114116;27;19920;-56
2022/08/08 00:20:35;;;;;;;;;;;9.80;99.90;;;;;;5122593;27;19912;-55
2022/08/08 00:23:19;;;;;;;;;;;9.90;99.90;;;;;;5125266;27;19912;-55
2022/08/08 00:26:02;;;;;;;;;;;10.00;99.90;;;;;;5121820;27;19918;-56
2022/08/08 00:28:44;;;;;;;;;;;10.00;99.90;;;;;;5124565;27;19912;-55
2022/08/08 00:31:29;;;;;;;;;;;9.90;99.90;;;;;;5123073;27;19918;-56
2022/08/08 00:37:32;;;;;;;;;;;9.70;99.90;;;;;;5090544;27;19949;-56
2022/08/08 00:40:20;;;;;;;;;;;9.70;99.90;;;;;;5122285;27;20330;-56
2022/08/08 00:43:09;;;;;;;;;;;9.70;99.90;;;;;;5124849;27;20402;-56
2022/08/08 00:45:59;;;;;;;;;;;9.70;99.90;;;;;;5103814;27;19923;-56
2022/08/08 00:48:49;;;;;;;;;;;9.60;99.90;;;;;;5124347;27;19912;-56
2022/08/08 00:51:42;;;;;;;;;;;9.50;99.90;;;;;;5119320;27;19918;-56
2022/08/08 00:54:33;;;;;;;;;;;9.40;99.90;;;;;;5108246;27;20377;-56
2022/08/08 00:57:23;;;;;;;;;;;9.50;99.90;;;;;;5119160;27;19918;-56
2022/08/08 01:00:06;;;;;;;;;;;9.40;99.90;;;;;;5123477;27;19912;-56
2022/08/08 01:03:16;;;;;;;;;;;9.30;99.90;;;;;;5111920;27;19920;-56
2022/08/08 01:06:13;;;;;;;;;;;9.20;99.90;;;;;;5122480;27;19922;-56
2022/08/08 01:09:16;;;;;;;;;;;9.20;99.90;;;;;;5123954;27;19912;-55
2022/08/08 01:12:22;;;;;;;;;;;9.20;99.90;;;;;;5119419;27;19918;-56
2022/08/08 01:15:32;;;;;;;;;;;9.10;99.90;;;;;;5088592;27;19912;-55
2022/08/08 01:18:21;;;;;;;;;;;9.10;99.90;;;;;;5120447;27;19927;-56
2022/08/08 01:21:22;;;;;;;;;;;9.10;99.90;;;;;;5073369;28;19912;-55
2022/08/08 01:24:20;;;;;;;;;;;9.00;99.90;;;;;;5099381;27;21601;-56
2022/08/08 01:27:32;;;;;;;;;;;8.90;99.90;;;;;;5118944;27;19916;-55
2022/08/08 01:30:40;;;;;;;;;;;8.90;99.90;;;;;;5102261;27;19919;-55
2022/08/08 01:33:28;;;;;;;;;;;8.80;99.90;;;;;;5111382;27;19919;-56
2022/08/08 01:36:22;;;;;;;;;;;8.70;99.90;;;;;;5121081;27;19912;-55
2022/08/08 01:39:13;;;;;;;;;;;8.70;99.90;;;;;;5103609;27;20109;-56
2022/08/08 01:41:57;;;;;;;;;;;8.70;99.90;;;;;;5078622;28;20332;-55
2022/08/08 01:44:58;;;;;;;;;;;8.70;99.90;;;;;;5115090;27;19918;-56
2022/08/08 01:47:50;;;;;;;;;;;8.80;99.90;;;;;;5100600;27;19916;-56
2022/08/08 01:50:39;;;;;;;;;;;8.80;99.90;;;;;;5121417;27;20002;-56
2022/08/08 01:53:34;;;;;;;;;;;8.70;99.90;;;;;;5084779;27;19954;-55
2022/08/08 01:56:21;;;;;;;;;;;8.70;99.90;;;;;;5141102;27;19918;-56
2022/08/08 01:59:08;;;;;;;;;;;8.70;99.90;;;;;;5123769;27;20185;-55
2022/08/08 02:02:06;;;;;;;;;;;8.70;99.90;;;;;;5126112;27;20334;-56
2022/08/08 02:05:00;;;;;;;;;;;8.60;99.90;;;;;;5091777;27;19916;-56
2022/08/08 02:07:47;;;;;;;;;;;8.60;99.90;;;;;;5100799;27;19973;-56
2022/08/08 02:10:44;;;;;;;;;;;8.60;99.90;;;;;;5121949;27;19919;-56
2022/08/08 02:13:25;;;;;;;;;;;8.50;99.90;;;;;;5111306;27;19919;-56
2022/08/08 02:16:12;;;;;;;;;;;8.60;99.90;;;;;;5121858;27;19919;-55
2022/08/08 02:19:01;;;;;;;;;;;8.50;99.90;;;;;;5124096;27;19918;-55
2022/08/08 02:24:46;;;;;;;;;;;8.40;99.90;;;;;;5113615;27;19920;-55
2022/08/08 02:27:29;;;;;;;;;;;8.40;99.90;;;;;;5113239;27;19922;-56
2022/08/08 02:30:11;;;;;;;;;;;8.40;99.90;;;;;;5141449;27;19911;-56
2022/08/08 02:33:05;;;;;;;;;;;8.40;99.90;;;;;;5125108;27;19916;-56
2022/08/08 02:35:58;;;;;;;;;;;8.30;99.90;;;;;;5107630;27;19916;-56
2022/08/08 02:38:53;;;;;;;;;;;8.20;99.90;;;;;;5124532;27;19912;-56
2022/08/08 02:41:59;;;;;;;;;;;8.20;99.90;;;;;;5099266;27;20141;-55
2022/08/08 02:45:01;;;;;;;;;;;8.10;99.90;;;;;;5114801;27;20286;-56
2022/08/08 02:48:04;;;;;;;;;;;8.20;99.90;;;;;;5092906;27;20455;-55
2022/08/08 02:51:06;;;;;;;;;;;8.20;99.90;;;;;;5121528;27;19915;-56
2022/08/08 02:53:59;;;;;;;;;;;8.10;99.90;;;;;;5121650;27;19920;-55
2022/08/08 02:56:56;;;;;;;;;;;8.10;99.90;;;;;;5098343;27;19917;-56
2022/08/08 02:59:53;;;;;;;;;;;8.10;99.90;;;;;;5103196;27;20293;-56
2022/08/08 03:02:56;;;;;;;;;;;8.10;99.90;;;;;;5112652;27;20409;-56
2022/08/08 03:05:54;;;;;;;;;;;8.00;99.90;;;;;;5147459;27;20310;-56
2022/08/08 03:08:51;;;;;;;;;;;7.90;99.90;;;;;;5124694;27;20327;-56
2022/08/08 03:11:49;;;;;;;;;;;7.90;99.90;;;;;;5099144;27;19916;-56
2022/08/08 03:14:50;;;;;;;;;;;7.90;99.90;;;;;;5078794;27;19923;-56
2022/08/08 03:17:34;;;;;;;;;;;7.80;99.90;;;;;;5114900;27;20315;-56
2022/08/08 03:20:14;;;;;;;;;;;7.80;99.90;;;;;;5122262;27;20396;-56
2022/08/08 03:22:57;;;;;;;;;;;7.80;99.90;;;;;;5128737;27;19915;-56
2022/08/08 03:25:40;;;;;;;;;;;7.80;99.90;;;;;;5083624;27;20370;-56
2022/08/08 03:28:27;;;;;;;;;;;7.80;99.90;;;;;;5111657;27;19912;-56
2022/08/08 03:34:02;;;;;;;;;;;7.70;99.90;;;;;;5095561;27;19916;-55
2022/08/08 03:36:44;;;;;;;;;;;7.70;99.90;;;;;;5099661;27;19930;-56
2022/08/08 03:39:25;;;;;;;;;;;7.70;99.90;;;;;;5107137;27;19922;-57
2022/08/08 03:42:05;;;;;;;;;;;7.60;99.90;;;;;;5119174;27;20282;-55
2022/08/08 03:44:51;;;;;;;;;;;7.60;99.90;;;;;;5093245;27;19912;-56
2022/08/08 03:47:32;;;;;;;;;;;7.70;99.90;;;;;;5114420;27;19938;-56
2022/08/08 03:50:19;;;;;;;;;;;7.60;99.90;;;;;;5122503;27;19912;-56
2022/08/08 03:53:01;;;;;;;;;;;7.60;99.90;;;;;;5125687;27;20411;-55
2022/08/08 03:55:42;;;;;;;;;;;7.60;99.90;;;;;;5104083;27;20319;-56
2022/08/08 03:58:24;;;;;;;;;;;7.60;99.90;;;;;;5111130;27;19912;-56
2022/08/08 04:01:34;;;;;;;;;;;7.60;99.90;;;;;;5118137;27;19922;-55
2022/08/08 04:04:18;;;;;;;;;;;7.60;99.90;;;;;;5115700;27;19912;-57
2022/08/08 04:06:59;;;;;;;;;;;7.70;99.90;;;;;;5119201;27;19922;-56
2022/08/08 04:09:55;;;;;;;;;;;7.70;99.90;;;;;;5103218;27;19912;-57
2022/08/08 04:12:37;;;;;;;;;;;7.80;99.90;;;;;;5113786;27;19922;-56
2022/08/08 04:15:18;;;;;;;;;;;7.80;99.90;;;;;;5107453;27;19922;-56
2022/08/08 04:17:59;;;;;;;;;;;7.90;99.90;;;;;;5103747;27;19912;-55
2022/08/08 04:20:41;;;;;;;;;;;7.90;99.90;;;;;;5121974;27;19934;-55
2022/08/08 04:23:20;;;;;;;;;;;8.00;99.90;;;;;;5117566;27;19912;-56
2022/08/08 04:26:00;;;;;;;;;;;8.10;99.90;;;;;;5102259;27;20183;-56
2022/08/08 04:28:42;;;;;;;;;;;8.20;99.90;;;;;;5124413;27;19918;-56
2022/08/08 04:31:23;;;;;;;;;;;8.20;99.90;;;;;;5123038;27;19912;-56
2022/08/08 04:34:03;;;;;;;;;;;8.30;99.90;;;;;;5116723;27;19916;-56
2022/08/08 04:36:43;;;;;;;;;;;8.40;99.90;;;;;;5098489;27;19970;-56
2022/08/08 04:39:23;;;;;;;;;;;8.60;99.90;;;;;;5099306;27;20274;-56
2022/08/08 04:42:02;;;;;;;;;;;8.70;99.90;;;;;;5119778;27;20423;-55
2022/08/08 04:44:42;;;;;;;;;;;8.90;99.90;;;;;;5114412;27;19919;-56
2022/08/08 04:47:22;;;;;;;;;;;9.00;99.90;;;;;;5112783;27;19926;-56
2022/08/08 04:50:02;;;;;;;;;;;9.20;99.90;;;;;;5123321;27;19922;-55
2022/08/08 04:52:45;;;;;;;;;;;9.30;99.90;;;;;;5120797;27;19922;-55
2022/08/08 04:55:30;;;;;;;;;;;9.40;99.90;;;;;;5063657;28;19931;-56
2022/08/08 04:58:13;;;;;;;;;;;9.60;99.90;;;;;;5124792;27;20447;-57
2022/08/08 05:00:54;;;;;;;;;;;10.00;99.90;;;;;;5122690;27;19912;-56
2022/08/08 05:03:35;;;;;;;;;;;11.00;99.90;;;;;;5121313;27;19934;-56
2022/08/08 05:06:17;;;;;;;;;;;12.20;99.90;;;;;;5120989;27;19918;-57
2022/08/08 05:08:58;;;;;;;;;;;13.30;99.90;;;;;;5124400;27;19912;-56
2022/08/08 05:11:38;;;;;;;;;;;14.00;99.90;;;;;;5121246;27;19915;-57
2022/08/08 05:14:18;;;;;;;;;;;14.70;99.90;;;;;;5098195;27;19913;-57
2022/08/08 05:17:01;;;;;;;;;;;15.20;99.90;;;;;;5118266;27;19915;-57
2022/08/08 05:19:44;;;;;;;;;;;15.40;99.90;;;;;;5102327;27;19916;-57
2022/08/08 05:22:26;;;;;;;;;;;14.90;99.90;;;;;;5120948;27;19911;-58
2022/08/08 05:25:07;;;;;;;;;;;14.30;99.90;;;;;;5086374;27;19923;-57
2022/08/08 05:27:48;;;;;;;;;;;14.20;99.90;;;;;;5103784;27;19920;-56
2022/08/08 05:30:28;;;;;;;;;;;14.10;99.90;;;;;;5122766;27;20407;-58
2022/08/08 05:33:08;;;;;;;;;;;13.90;99.90;;;;;;5124935;27;19922;-55
2022/08/08 05:35:49;;;;;;;;;;;13.80;99.90;;;;;;5104402;27;19920;-56
2022/08/08 05:38:30;;;;;;;;;;;13.70;99.90;;;;;;5105065;27;19912;-56
2022/08/08 05:41:19;;;;;;;;;;;13.70;99.90;;;;;;5122787;27;19911;-56
2022/08/08 05:44:03;;;;;;;;;;;13.70;99.90;;;;;;5118703;27;19946;-56
2022/08/08 05:46:43;;;;;;;;;;;13.80;99.90;;;;;;5118032;27;19912;-57
2022/08/08 05:49:23;;;;;;;;;;;13.80;99.90;;;;;;5086272;27;19913;-56
2022/08/08 05:52:05;;;;;;;;;;;14.00;99.90;;;;;;5118716;27;19912;-56
2022/08/08 05:54:44;;;;;;;;;;;14.20;99.90;;;;;;5114944;27;19916;-57
2022/08/08 05:57:27;;;;;;;;;;;14.40;99.90;;;;;;5119451;27;20428;-56
2022/08/08 06:00:08;;;;;;;;;;;14.50;99.90;;;;;;5152100;27;19911;-56
2022/08/08 06:03:10;;;;;;;;;;;14.60;99.90;;;;;;5121916;27;20307;-56
2022/08/08 06:05:57;;;;;;;;;;;14.70;99.90;;;;;;5122062;27;19911;-56
2022/08/08 06:08:42;;;;;;;;;;;14.80;99.90;;;;;;5145972;27;19949;-56
2022/08/08 06:11:26;;;;;;;;;;;14.80;99.90;;;;;;5101732;27;20311;-56
2022/08/08 06:14:08;;;;;;;;;;;14.80;99.90;;;;;;5119885;27;19918;-56
2022/08/08 06:16:48;;;;;;;;;;;15.00;99.90;;;;;;5122310;27;19942;-56
2022/08/08 06:19:41;;;;;;;;;;;15.10;99.90;;;;;;5104504;27;19970;-57
2022/08/08 06:22:22;;;;;;;;;;;15.30;99.90;;;;;;5113747;27;19922;-56
2022/08/08 06:25:06;;;;;;;;;;;15.50;99.90;;;;;;5111100;27;19919;-56
2022/08/08 06:27:50;;;;;;;;;;;15.50;99.90;;;;;;5124544;27;19920;-56
2022/08/08 06:30:32;;;;;;;;;;;15.50;99.90;;;;;;5122342;27;19919;-57
2022/08/08 06:33:13;;;;;;;;;;;15.60;99.90;;;;;;5125502;27;19916;-56
2022/08/08 06:35:55;;;;;;;;;;;15.80;99.90;;;;;;5122891;27;19922;-56
2022/08/08 06:38:37;;;;;;;;;;;16.00;99.90;;;;;;5124685;27;19916;-57
2022/08/08 06:41:18;;;;;;;;;;;16.10;99.90;;;;;;5102933;27;20280;-56
2022/08/08 06:44:02;;;;;;;;;;;16.30;99.90;;;;;;5118030;27;19922;-56
2022/08/08 06:46:47;;;;;;;;;;;16.40;99.90;;;;;;5099307;27;19926;-56
2022/08/08 06:49:28;;;;;;;;;;;16.50;99.90;;;;;;5133737;27;19922;-56
2022/08/08 06:52:09;;;;;;;;;;;16.70;99.90;;;;;;5102412;27;19916;-56
2022/08/08 06:54:48;;;;;;;;;;;16.90;99.90;;;;;;5112926;27;19912;-56
2022/08/08 06:57:28;;;;;;;;;;;17.00;99.90;;;;;;5113270;27;19919;-57
2022/08/08 07:00:09;;;;;;;;;;;17.20;99.90;;;;;;5122283;27;19915;-56
2022/08/08 07:02:52;;;;;;;;;;;17.30;99.90;;;;;;5110107;27;19916;-56
2022/08/08 07:05:33;;;;;;;;;;;17.50;99.90;;;;;;5105147;27;19916;-56
2022/08/08 07:08:17;;;;;;;;;;;17.60;99.90;;;;;;5104652;27;19969;-56
2022/08/08 07:11:03;;;;;;;;;;;17.70;99.90;;;;;;5120530;27;19918;-56
2022/08/08 07:13:44;;;;;;;;;;;17.90;99.90;;;;;;5123113;27;19918;-56
2022/08/08 07:16:29;;;;;;;;;;;18.10;99.90;;;;;;5119533;27;19912;-56
2022/08/08 07:19:13;;;;;;;;;;;18.10;99.90;;;;;;5124364;27;19912;-56
2022/08/08 07:21:59;;;;;;;;;;;18.30;99.90;;;;;;5119586;27;19929;-56
2022/08/08 07:24:43;;;;;;;;;;;18.50;99.90;;;;;;5114730;27;19926;-56
2022/08/08 07:27:24;;;;;;;;;;;18.60;99.90;;;;;;5144070;27;19911;-56
2022/08/08 07:30:06;;;;;;;;;;;18.80;99.90;;;;;;5123005;27;20282;-56
2022/08/08 07:32:51;;;;;;;;;;;19.00;99.90;;;;;;5090708;27;19946;-56
2022/08/08 07:35:32;;;;;;;;;;;19.00;99.90;;;;;;5105230;27;20407;-57
2022/08/08 07:38:13;;;;;;;;;;;19.20;99.90;;;;;;5124623;27;20331;-56
2022/08/08 07:41:08;;;;;;;;;;;19.30;99.90;;;;;;5121675;27;19918;-56
2022/08/08 07:43:53;;;;;;;;;;;19.50;99.90;;;;;;5101170;27;20367;-56
2022/08/08 07:46:34;;;;;;;;;;;19.70;99.90;;;;;;5099029;27;20427;-56
2022/08/08 07:49:24;;;;;;;;;;;19.90;99.90;;;;;;5085174;27;19954;-56
2022/08/08 07:52:06;;;;;;;;;;;20.00;99.90;;;;;;5119524;27;20435;-57
2022/08/08 07:54:48;;;;;;;;;;;20.10;99.90;;;;;;5113427;27;19920;-57
2022/08/08 07:57:36;;;;;;;;;;;20.30;99.90;;;;;;5112590;27;19915;-56
2022/08/08 08:00:19;;;;;;;;;;;20.30;99.90;;;;;;5101974;27;19938;-56
2022/08/08 08:03:10;;;;;;;;;;;20.40;99.90;;;;;;5122044;27;19918;-57
2022/08/08 08:05:51;;;;;;;;;;;20.50;98.90;;;;;;5135515;27;19918;-56
2022/08/08 08:08:38;;;;;;;;;;;20.70;97.40;;;;;;5124217;27;19922;-57
2022/08/08 08:11:20;;;;;;;;;;;20.80;94.30;;;;;;5119177;27;19918;-57
2022/08/08 08:14:04;;;;;;;;;;;21.00;92.60;;;;;;5125120;27;20376;-56
2022/08/08 08:16:47;;;;;;;;;;;21.20;88.20;;;;;;5098361;27;19919;-56
2022/08/08 08:19:30;;;;;;;;;;;21.30;78.20;;;;;;5104971;27;19919;-56
2022/08/08 08:22:11;;;;;;;;;;;21.30;78.50;;;;;;5099228;27;20133;-57
2022/08/08 08:24:57;;;;;;;;;;;21.40;72.00;;;;;;5112887;27;19918;-59
2022/08/08 08:27:37;;;;;;;;;;;21.40;71.10;;;;;;5092969;27;19930;-56
2022/08/08 08:30:18;;;;;;;;;;;21.60;65.90;;;;;;5122345;27;19958;-56
2022/08/08 08:33:00;;;;;;;;;;;21.70;65.80;;;;;;5121947;27;19918;-57
2022/08/08 08:35:41;;;;;;;;;;;21.90;64.80;;;;;;5122167;27;19939;-56
2022/08/08 08:38:21;;;;;;;;;;;22.00;57.60;;;;;;5090811;27;19927;-57
2022/08/08 08:41:11;;;;;;;;;;;22.10;58.20;;;;;;5121468;27;19916;-57
2022/08/08 08:43:54;;;;;;;;;;;22.20;58.50;;;;;;5121494;27;20180;-57
2022/08/08 08:46:34;;;;;;;;;;;22.30;58.00;;;;;;5119064;27;19922;-57
2022/08/08 08:49:15;;;;;;;;;;;22.40;56.80;;;;;;5124019;27;20403;-56
2022/08/08 08:51:59;;;;;;;;;;;22.50;55.00;;;;;;5119216;27;19918;-57
2022/08/08 08:54:39;;;;;;;;;;;22.50;53.90;;;;;;5116298;27;19918;-57
2022/08/08 08:57:21;;;;;;;;;;;22.40;54.20;;;;;;5115214;27;19935;-57
2022/08/08 09:00:02;;;;;;;;;;;22.40;52.60;;;;;;5104612;27;19918;-56
2022/08/08 09:02:46;;;;;;;;;;;22.40;54.50;;;;;;5119705;27;19945;-57
2022/08/08 09:05:27;;;;;;;;;;;22.50;54.60;;;;;;5106641;27;19919;-57
2022/08/08 09:08:08;;;;;;;;;;;22.70;54.00;;;;;;5126805;27;19918;-57
2022/08/08 09:10:48;;;;;;;;;;;22.80;51.80;;;;;;5123543;27;20292;-57
2022/08/08 09:13:30;;;;;;;;;;;23.00;50.60;;;;;;5126016;27;19918;-56
2022/08/08 09:16:11;;;;;;;;;;;23.20;47.90;;;;;;5143905;27;19911;-57
2022/08/08 09:18:51;;;;;;;;;;;23.20;47.90;;;;;;5143549;27;19918;-57
2022/08/08 09:21:33;;;;;;;;;;;23.20;45.90;;;;;;5121075;27;20152;-57
2022/08/08 09:24:14;;;;;;;;;;;23.30;46.20;;;;;;5120608;27;19918;-57
2022/08/08 09:26:58;;;;;;;;;;;23.20;45.20;;;;;;5120418;27;20304;-57
2022/08/08 09:29:44;;;;;;;;;;;23.20;45.70;;;;;;5125878;27;19934;-56
2022/08/08 09:32:33;;;;;;;;;;;23.20;46.20;;;;;;5112321;27;19973;-56
2022/08/08 09:35:15;;;;;;;;;;;23.30;47.20;;;;;;5165843;22;21390;-55
2022/08/08 09:37:56;;;;;;;;;;;23.20;46.20;;;;;;5124550;27;19922;-55
2022/08/08 09:40:41;;;;;;;;;;;23.20;47.10;;;;;;5122442;27;19918;-53
2022/08/08 09:43:29;;;;;;;;;;;23.20;46.60;;;;;;5111474;27;19918;-55
2022/08/08 09:46:10;;;;;;;;;;;23.30;47.10;;;;;;5132480;27;19918;-55
2022/08/08 09:48:51;;;;;;;;;;;23.50;46.90;;;;;;5123343;27;20384;-54
2022/08/08 09:51:31;;;;;;;;;;;23.70;48.30;;;;;;5119259;27;19927;-55
2022/08/08 09:54:11;;;;;;;;;;;23.90;46.20;;;;;;5125248;27;20281;-55
2022/08/08 09:56:54;;;;;;;;;;;23.90;45.10;;;;;;5101813;27;20194;-54
2022/08/08 09:59:36;;;;;;;;;;;23.90;45.20;;;;;;5123959;27;19912;-55
2022/08/08 10:02:19;;;;;;;;;;;23.80;45.40;;;;;;5083185;27;19912;-55
2022/08/08 10:05:03;;;;;;;;;;;23.80;45.20;;;;;;5122432;27;19912;-54
2022/08/08 10:07:54;;;;;;;;;;;23.90;44.40;;;;;;5100390;27;19953;-56
2022/08/08 10:10:35;;;;;;;;;;;24.00;44.90;;;;;;5101339;27;19916;-56
2022/08/08 10:13:18;;;;;;;;;;;24.20;43.80;;;;;;5123929;27;19930;-54
2022/08/08 10:16:00;;;;;;;;;;;24.20;43.70;;;;;;5123142;27;19922;-55
2022/08/08 10:18:40;;;;;;;;;;;24.10;43.90;;;;;;5124457;27;19912;-56
2022/08/08 10:21:22;;;;;;;;;;;24.00;43.90;;;;;;5120142;27;19938;-54
2022/08/08 10:24:05;;;;;;;;;;;24.00;43.70;;;;;;5104431;27;19912;-54
2022/08/08 10:26:49;;;;;;;;;;;24.10;43.50;;;;;;5102388;27;19942;-54
2022/08/08 10:29:46;;;;;;;;;;;24.10;43.20;;;;;;5136061;27;19911;-53
2022/08/08 10:32:35;;;;;;;;;;;24.20;43.00;;;;;;5111362;27;20082;-54
2022/08/08 10:35:17;;;;;;;;;;;24.20;42.50;;;;;;5118567;27;19912;-53
2022/08/08 10:37:58;;;;;;;;;;;24.20;42.80;;;;;;5124268;27;19960;-54
2022/08/08 10:40:39;;;;;;;;;;;24.20;43.40;;;;;;5122037;27;19922;-54
2022/08/08 10:43:19;;;;;;;;;;;24.10;43.20;;;;;;5112025;27;19957;-56
2022/08/08 10:45:59;;;;;;;;;;;24.00;42.80;;;;;;5113406;27;19934;-54
2022/08/08 10:48:38;;;;;;;;;;;23.90;42.20;;;;;;5124689;27;20387;-55
2022/08/08 10:51:18;;;;;;;;;;;23.90;41.10;;;;;;5120672;27;19911;-54
2022/08/08 10:53:58;;;;;;;;;;;24.00;41.50;;;;;;5125075;27;19918;-54
2022/08/08 10:56:38;;;;;;;;;;;24.20;42.60;;;;;;5146043;27;19911;-55
2022/08/08 10:59:20;;;;;;;;;;;24.30;41.80;;;;;;5124639;27;19918;-53
2022/08/08 11:01:59;;;;;;;;;;;24.30;42.50;;;;;;5119272;27;19918;-54
2022/08/08 11:04:45;;;;;;;;;;;24.40;42.70;;;;;;5124749;27;19912;-54
2022/08/08 11:07:26;;;;;;;;;;;24.50;41.30;;;;;;5138668;27;19921;-55
2022/08/08 11:10:08;;;;;;;;;;;24.60;42.70;;;;;;5122644;27;19919;-55
2022/08/08 11:12:49;;;;;;;;;;;24.70;41.00;;;;;;5111727;27;19926;-55
2022/08/08 11:15:30;;;;;;;;;;;24.90;40.40;;;;;;5096226;27;20419;-54
2022/08/08 11:18:11;;;;;;;;;;;25.00;40.50;;;;;;5124622;27;19926;-55
2022/08/08 11:20:52;;;;;;;;;;;25.00;39.50;;;;;;5133513;27;19916;-56
2022/08/08 11:23:33;;;;;;;;;;;25.00;41.20;;;;;;5124490;27;19918;-54
2022/08/08 11:26:16;;;;;;;;;;;25.00;38.90;;;;;;5087313;27;19916;-54
2022/08/08 11:28:58;;;;;;;;;;;25.00;38.80;;;;;;5123138;27;19912;-55
2022/08/08 11:31:40;;;;;;;;;;;25.00;38.20;;;;;;5101152;27;19926;-55
2022/08/08 11:34:20;;;;;;;;;;;24.90;37.80;;;;;;5066747;27;19917;-54
2022/08/08 11:37:01;;;;;;;;;;;24.80;37.90;;;;;;5079507;27;19913;-55
2022/08/08 11:39:43;;;;;;;;;;;24.80;38.40;;;;;;5123611;27;19920;-53
2022/08/08 11:42:24;;;;;;;;;;;24.80;37.50;;;;;;5113351;27;19915;-55
2022/08/08 11:45:05;;;;;;;;;;;24.80;37.00;;;;;;5123898;27;19926;-55
2022/08/08 11:47:45;;;;;;;;;;;24.90;38.90;;;;;;5120840;27;20419;-54
2022/08/08 11:50:25;;;;;;;;;;;25.20;38.80;;;;;;5121831;27;19930;-54
2022/08/08 11:53:07;;;;;;;;;;;25.40;39.20;;;;;;5124538;27;19922;-54
2022/08/08 11:55:50;;;;;;;;;;;25.60;38.70;;;;;;5093761;27;19935;-55
2022/08/08 11:58:34;;;;;;;;;;;25.80;37.40;;;;;;5124130;27;19911;-54
2022/08/08 12:01:14;;;;;;;;;;;25.90;39.00;;;;;;5121299;27;19916;-54
2022/08/08 12:03:54;;;;;;;;;;;25.90;36.40;;;;;;5124874;27;19916;-56
2022/08/08 12:06:33;;;;;;;;;;;25.70;37.50;;;;;;5104073;27;19916;-54
2022/08/08 12:09:13;;;;;;;;;;;25.70;36.60;;;;;;5124084;27;19912;-55
2022/08/08 12:11:53;;;;;;;;;;;25.80;36.90;;;;;;5126874;27;20372;-54
2022/08/08 12:14:33;;;;;;;;;;;25.60;36.50;;;;;;5103980;27;19912;-56
2022/08/08 12:17:13;;;;;;;;;;;25.60;37.20;;;;;;5098749;27;19973;-55
2022/08/08 12:19:57;;;;;;;;;;;25.80;37.30;;;;;;5103434;27;19954;-55
2022/08/08 12:22:48;;;;;;;;;;;26.10;36.90;;;;;;5113496;27;19916;-55
2022/08/08 12:25:28;;;;;;;;;;;26.10;36.70;;;;;;5116678;27;19912;-55
2022/08/08 12:28:09;;;;;;;;;;;26.00;37.00;;;;;;5125016;27;19911;-53
2022/08/08 12:30:49;;;;;;;;;;;25.90;35.50;;;;;;5122033;27;19915;-55
2022/08/08 12:33:29;;;;;;;;;;;25.50;35.60;;;;;;5121421;27;19911;-54
2022/08/08 12:36:13;;;;;;;;;;;25.40;36.70;;;;;;5089638;27;19916;-55
2022/08/08 12:38:54;;;;;;;;;;;25.50;36.30;;;;;;5103314;27;19912;-56
2022/08/08 12:41:35;;;;;;;;;;;25.70;35.70;;;;;;5119330;27;19912;-54
2022/08/08 12:44:15;;;;;;;;;;;25.80;35.50;;;;;;5124825;27;19912;-55
2022/08/08 12:46:56;;;;;;;;;;;25.80;35.50;;;;;;5101242;27;20270;-55
2022/08/08 12:49:37;;;;;;;;;;;25.90;35.30;;;;;;5103061;27;19949;-56
2022/08/08 12:52:21;;;;;;;;;;;25.90;35.70;;;;;;5118326;27;20392;-55
2022/08/08 12:55:05;;;;;;;;;;;25.90;35.00;;;;;;5123535;27;19937;-55
2022/08/08 12:57:45;;;;;;;;;;;26.00;35.10;;;;;;5120091;27;19919;-55
2022/08/08 13:00:28;;;;;;;;;;;26.30;36.40;;;;;;5101731;27;19926;-54
2022/08/08 13:03:08;;;;;;;;;;;26.40;34.80;;;;;;5121838;27;19916;-54
2022/08/08 13:05:48;;;;;;;;;;;26.40;36.60;;;;;;5113807;27;19934;-53
2022/08/08 13:08:37;;;;;;;;;;;26.40;35.10;;;;;;5103676;27;20331;-55
2022/08/08 13:11:18;;;;;;;;;;;26.30;34.60;;;;;;5098418;27;20395;-54
2022/08/08 13:14:03;;;;;;;;;;;26.30;35.20;;;;;;5124951;27;19918;-54
2022/08/08 13:16:43;;;;;;;;;;;26.40;35.80;;;;;;5081787;27;19927;-55
2022/08/08 13:19:24;;;;;;;;;;;26.50;35.30;;;;;;5106261;27;19920;-54
2022/08/08 13:22:06;;;;;;;;;;;26.40;34.60;;;;;;5099111;27;20391;-55
2022/08/08 13:24:46;;;;;;;;;;;26.30;34.00;;;;;;5103064;27;19958;-56
2022/08/08 13:27:29;;;;;;;;;;;26.30;33.90;;;;;;5118241;27;20151;-56
2022/08/08 13:30:10;;;;;;;;;;;26.30;34.90;;;;;;5141486;27;19922;-54
2022/08/08 13:32:54;;;;;;;;;;;26.40;39.70;;;;;;5120970;27;20258;-55
2022/08/08 13:35:33;;;;;;;;;;;26.60;35.30;;;;;;5095473;27;20310;-54
2022/08/08 13:38:17;;;;;;;;;;;26.70;33.70;;;;;;5083482;28;19916;-54
2022/08/08 13:40:59;;;;;;;;;;;26.70;34.10;;;;;;5147823;27;19918;-54
2022/08/08 13:43:39;;;;;;;;;;;26.60;34.50;;;;;;5124871;27;19938;-56
2022/08/08 13:46:19;;;;;;;;;;;26.70;35.30;;;;;;5107358;27;20392;-55
2022/08/08 13:48:59;;;;;;;;;;;26.80;33.30;;;;;;5123679;27;19922;-54
2022/08/08 13:51:39;;;;;;;;;;;26.70;35.70;;;;;;5119741;27;19916;-54
2022/08/08 13:54:21;;;;;;;;;;;26.80;33.70;;;;;;5104543;27;19912;-54
2022/08/08 13:57:06;;;;;;;;;;;26.90;34.00;;;;;;5059982;28;19920;-56
2022/08/08 13:59:47;;;;;;;;;;;27.00;34.30;;;;;;5103103;27;19918;-55
2022/08/08 14:02:28;;;;;;;;;;;27.10;32.50;;;;;;5110230;27;19912;-56
2022/08/08 14:05:09;;;;;;;;;;;27.10;32.30;;;;;;5120161;27;19927;-55
2022/08/08 14:07:49;;;;;;;;;;;27.00;31.90;;;;;;5112930;27;20387;-54
2022/08/08 14:10:30;;;;;;;;;;;26.90;32.30;;;;;;5121651;27;19913;-55
2022/08/08 14:13:15;;;;;;;;;;;26.90;32.10;;;;;;5123965;27;19922;-54
2022/08/08 14:16:02;;;;;;;;;;;26.90;32.00;;;;;;5113521;27;20415;-54
2022/08/08 14:18:50;;;;;;;;;;;27.00;34.80;;;;;;5103885;27;19919;-54
2022/08/08 14:21:39;;;;;;;;;;;27.10;32.60;;;;;;5098748;27;19919;-54
2022/08/08 14:24:29;;;;;;;;;;;27.10;31.30;;;;;;5125215;27;19957;-56
2022/08/08 14:27:17;;;;;;;;;;;27.30;31.60;;;;;;5126870;27;19911;-55
2022/08/08 14:29:58;;;;;;;;;;;27.40;33.50;;;;;;5123286;27;19918;-54
2022/08/08 14:32:44;;;;;;;;;;;27.50;30.90;;;;;;5120969;27;19914;-56
2022/08/08 14:35:26;;;;;;;;;;;27.40;31.50;;;;;;5117017;27;19920;-54
2022/08/08 14:38:07;;;;;;;;;;;27.40;30.40;;;;;;5123569;27;20273;-56
2022/08/08 14:40:48;;;;;;;;;;;27.40;31.00;;;;;;5121394;27;19920;-54
2022/08/08 14:43:28;;;;;;;;;;;27.50;30.90;;;;;;5103244;27;19918;-56
2022/08/08 14:46:09;;;;;;;;;;;27.60;30.00;;;;;;5095686;27;19926;-56
2022/08/08 14:48:49;;;;;;;;;;;27.50;29.80;;;;;;5103097;27;19918;-55
2022/08/08 14:51:37;;;;;;;;;;;27.50;29.90;;;;;;5099532;27;19919;-54
2022/08/08 14:54:16;;;;;;;;;;;27.40;30.10;;;;;;5121400;27;19918;-54
2022/08/08 14:56:57;;;;;;;;;;;27.50;30.60;;;;;;5118949;27;19916;-54
2022/08/08 14:59:36;;;;;;;;;;;27.60;30.30;;;;;;5122938;27;20312;-55
2022/08/08 15:02:21;;;;;;;;;;;27.70;30.00;;;;;;5122349;27;20369;-55
2022/08/08 15:05:01;;;;;;;;;;;27.70;30.00;;;;;;5121726;27;19916;-55
2022/08/08 15:07:42;;;;;;;;;;;27.80;30.40;;;;;;5100734;27;19912;-54
2022/08/08 15:10:22;;;;;;;;;;;27.80;29.40;;;;;;5121436;27;19922;-55
2022/08/08 15:13:02;;;;;;;;;;;27.60;29.40;;;;;;5123873;27;19922;-54
2022/08/08 15:15:43;;;;;;;;;;;27.60;29.80;;;;;;5114333;27;19935;-54
2022/08/08 15:18:23;;;;;;;;;;;27.80;30.00;;;;;;5110941;27;19912;-54
2022/08/08 15:21:03;;;;;;;;;;;27.90;29.90;;;;;;5121715;27;19911;-55
2022/08/08 15:23:44;;;;;;;;;;;28.10;30.00;;;;;;5124783;27;19912;-55
2022/08/08 15:26:24;;;;;;;;;;;28.20;29.80;;;;;;5105190;27;20332;-55
2022/08/08 15:29:04;;;;;;;;;;;28.10;30.00;;;;;;5103437;27;19934;-55
2022/08/08 15:31:44;;;;;;;;;;;28.10;29.10;;;;;;5119376;27;19912;-55
2022/08/08 15:34:24;;;;;;;;;;;28.10;30.50;;;;;;5108056;27;19912;-56
2022/08/08 15:37:04;;;;;;;;;;;28.20;30.10;;;;;;5100807;27;19916;-56
2022/08/08 15:39:45;;;;;;;;;;;28.30;30.30;;;;;;5123525;27;19922;-56
2022/08/08 15:42:24;;;;;;;;;;;28.30;29.20;;;;;;5117886;27;19916;-56
2022/08/08 15:45:05;;;;;;;;;;;28.20;29.30;;;;;;5121023;27;20387;-55
2022/08/08 15:47:46;;;;;;;;;;;28.10;29.20;;;;;;5083606;28;19920;-56
2022/08/08 15:50:59;;;;;;;;;;;28.30;29.10;;;;;;5101626;27;19927;-55
2022/08/08 15:53:27;;;;;;;;;;;29.40;28.60;;;;;;5110610;27;20131;-55
2022/08/08 15:56:08;;;;;;;;;;;30.50;27.40;;;;;;5121405;27;20304;-56
2022/08/08 15:58:49;;;;;;;;;;;31.10;27.00;;;;;;5123223;27;19912;-55
2022/08/08 16:01:31;;;;;;;;;;;32.00;26.70;;;;;;5098624;27;19913;-56
2022/08/08 16:04:12;;;;;;;;;;;32.50;25.70;;;;;;5122484;27;19912;-54
2022/08/08 16:06:52;;;;;;;;;;;32.90;25.70;;;;;;5081291;27;20467;-56
2022/08/08 16:09:32;;;;;;;;;;;32.80;25.40;;;;;;5123576;27;20393;-56